createdAt,value
2022-12-18T00:01:14.512Z,15.43
2022-12-18T00:03:41.367Z,14.60
2022-12-18T00:06:09.291Z,14.80
2022-12-18T00:08:36.167Z,13.38
2022-12-18T00:11:07.264Z,13.80
2022-12-18T00:13:33.855Z,14.48
2022-12-18T00:16:05.427Z,13.32
2022-12-18T00:18:32.556Z,12.48
2022-12-18T00:21:04.168Z,12.85
2022-12-18T00:23:31.833Z,13.27
2022-12-18T00:26:02.766Z,12.25
2022-12-18T00:28:29.143Z,10.85
2022-12-18T00:31:25.557Z,11.60
2022-12-18T00:33:54.199Z,12.38
2022-12-18T00:36:24.339Z,11.27
2022-12-18T00:38:50.971Z,10.55
2022-12-18T00:41:38.520Z,10.60
2022-12-18T00:44:06.728Z,10.73
2022-12-18T00:46:33.345Z,10.25
2022-12-18T00:49:00.050Z,11.88
2022-12-18T00:51:26.470Z,10.40
2022-12-18T00:53:53.573Z,10.60
2022-12-18T00:56:19.865Z,10.40
2022-12-18T00:58:46.163Z,9.77
2022-12-18T01:01:12.529Z,9.00
2022-12-18T01:03:39.241Z,9.00
2022-12-18T01:06:08.715Z,8.85
2022-12-18T01:08:35.775Z,8.00
2022-12-18T01:11:08.163Z,9.13
2022-12-18T01:13:34.495Z,7.93
2022-12-18T01:16:00.950Z,7.93
2022-12-18T01:18:27.288Z,8.02
2022-12-18T01:23:35.127Z,7.70
2022-12-18T01:26:14.763Z,7.38
2022-12-18T01:28:41.925Z,7.78
2022-12-18T01:31:11.572Z,7.50
2022-12-18T01:33:38.420Z,7.25
2022-12-18T01:36:05.529Z,7.63
2022-12-18T01:38:32.162Z,6.53
2022-12-18T01:40:59.761Z,6.75
2022-12-18T01:43:42.726Z,7.82
2022-12-18T01:48:35.981Z,6.03
2022-12-18T01:51:02.833Z,5.93
2022-12-18T01:53:29.641Z,6.35
2022-12-18T01:55:58.598Z,6.47
2022-12-18T01:58:54.772Z,5.85
2022-12-18T02:01:24.174Z,6.00
2022-12-18T02:03:51.084Z,5.85
2022-12-18T02:06:34.380Z,5.85
2022-12-18T02:09:16.092Z,5.95
2022-12-18T02:11:54.805Z,5.03
2022-12-18T02:14:44.789Z,4.90
2022-12-18T02:17:21.185Z,4.85
2022-12-18T02:20:06.151Z,5.43
2022-12-18T02:22:44.349Z,5.00
2022-12-18T02:25:48.058Z,5.07
2022-12-18T02:28:17.948Z,4.57
2022-12-18T02:30:50.156Z,4.45
2022-12-18T02:33:20.135Z,4.03
2022-12-18T02:35:48.120Z,4.18
2022-12-18T02:38:16.712Z,4.18
2022-12-18T02:40:44.070Z,4.45
2022-12-18T02:43:13.915Z,3.85
2022-12-18T02:45:56.051Z,3.92
2022-12-18T02:48:30.165Z,2.70
2022-12-18T02:51:09.295Z,3.03
2022-12-18T02:53:46.627Z,3.13
2022-12-18T02:56:19.740Z,3.22
2022-12-18T02:59:05.539Z,3.17
2022-12-18T03:01:42.185Z,2.45
2022-12-18T03:04:39.548Z,3.00
2022-12-18T03:07:16.668Z,2.67
2022-12-18T03:09:48.081Z,2.38
2022-12-18T03:12:30.261Z,2.38
2022-12-18T03:15:17.853Z,1.80
2022-12-18T03:17:51.188Z,2.42
2022-12-18T03:20:21.448Z,2.50
2022-12-18T03:22:52.138Z,2.40
2022-12-18T03:25:20.421Z,3.58
2022-12-18T03:27:52.933Z,2.50
2022-12-18T03:30:19.749Z,2.10
2022-12-18T03:32:49.985Z,2.88
2022-12-18T03:35:22.596Z,2.50
2022-12-18T03:37:49.551Z,2.53
2022-12-18T03:40:16.230Z,2.15
2022-12-18T03:42:59.955Z,2.28
2022-12-18T03:45:40.659Z,2.10
2022-12-18T03:48:17.199Z,2.20
2022-12-18T03:50:53.787Z,2.15
2022-12-18T03:53:26.303Z,2.47
2022-12-18T03:55:53.667Z,2.47
2022-12-18T03:58:26.603Z,2.30
2022-12-18T04:00:57.071Z,2.55
2022-12-18T04:03:26.715Z,2.40
2022-12-18T04:05:56.398Z,2.35
2022-12-18T04:08:24.853Z,2.33
2022-12-18T04:10:51.427Z,2.70
2022-12-18T04:13:44.407Z,2.60
2022-12-18T04:16:11.049Z,2.35
2022-12-18T04:18:37.848Z,2.30
2022-12-18T04:21:04.760Z,2.30
2022-12-18T04:23:31.281Z,2.38
2022-12-18T04:25:57.864Z,2.30
2022-12-18T04:28:24.388Z,2.00
2022-12-18T04:30:51.118Z,2.05
2022-12-18T04:33:17.738Z,2.00
2022-12-18T04:35:44.465Z,2.08
2022-12-18T04:38:11.309Z,2.00
2022-12-18T04:40:38.795Z,2.00
2022-12-18T04:43:05.903Z,1.92
2022-12-18T04:45:33.226Z,1.80
2022-12-18T04:48:00.654Z,2.10
2022-12-18T04:50:27.280Z,2.17
2022-12-18T04:52:54.191Z,2.05
2022-12-18T04:55:20.810Z,2.00
2022-12-18T04:57:47.410Z,2.20
2022-12-18T05:00:14.729Z,2.45
2022-12-18T05:02:41.432Z,2.03
2022-12-18T05:05:08.630Z,2.35
2022-12-18T05:07:35.115Z,2.33
2022-12-18T05:10:01.713Z,2.05
2022-12-18T05:12:28.260Z,1.98
2022-12-18T05:14:54.769Z,2.15
2022-12-18T05:17:21.273Z,2.20
2022-12-18T05:19:47.855Z,1.98
2022-12-18T05:22:14.369Z,2.10
2022-12-18T05:24:40.938Z,1.92
2022-12-18T05:27:07.531Z,2.20
2022-12-18T05:29:34.251Z,2.22
2022-12-18T05:32:00.873Z,2.13
2022-12-18T05:34:27.318Z,2.20
2022-12-18T05:36:53.831Z,2.08
2022-12-18T05:39:20.327Z,2.00
2022-12-18T05:41:46.788Z,2.10
2022-12-18T05:44:13.467Z,1.88
2022-12-18T05:46:40.037Z,2.47
2022-12-18T05:49:07.340Z,2.13
2022-12-18T05:51:33.889Z,2.40
2022-12-18T05:54:00.474Z,2.22
2022-12-18T05:56:27.021Z,2.08
2022-12-18T05:58:54.959Z,2.22
2022-12-18T06:01:26.307Z,2.25
2022-12-18T06:03:53.215Z,1.88
2022-12-18T06:06:23.470Z,2.60
2022-12-18T06:08:51.606Z,2.45
2022-12-18T06:11:21.426Z,2.35
2022-12-18T06:13:54.793Z,2.15
2022-12-18T06:16:24.696Z,2.00
2022-12-18T06:18:51.226Z,2.00
2022-12-18T06:21:17.721Z,1.85
2022-12-18T06:23:44.568Z,2.03
2022-12-18T06:26:13.103Z,1.98
2022-12-18T06:28:39.990Z,2.13
2022-12-18T06:31:07.536Z,2.25
2022-12-18T06:33:35.038Z,2.00
2022-12-18T06:36:07.210Z,2.60
2022-12-18T06:38:35.470Z,2.25
2022-12-18T06:41:06.691Z,2.25
2022-12-18T06:43:33.363Z,2.28
2022-12-18T06:46:01.543Z,2.35
2022-12-18T06:48:28.505Z,1.85
2022-12-18T06:50:55.185Z,2.55
2022-12-18T06:53:21.699Z,2.20
2022-12-18T06:55:48.224Z,2.25
2022-12-18T06:58:14.804Z,2.20
2022-12-18T07:00:41.625Z,2.17
2022-12-18T07:03:08.493Z,2.25
2022-12-18T07:05:35.397Z,1.75
2022-12-18T07:08:01.905Z,2.10
2022-12-18T07:10:28.377Z,2.60
2022-12-18T07:12:54.853Z,2.15
2022-12-18T07:15:21.333Z,2.28
2022-12-18T07:17:47.978Z,2.40
2022-12-18T07:20:14.394Z,2.38
2022-12-18T07:22:40.715Z,1.83
2022-12-18T07:25:07.874Z,2.05
2022-12-18T07:27:34.201Z,2.58
2022-12-18T07:30:00.539Z,1.73
2022-12-18T07:32:26.831Z,2.30
2022-12-18T07:34:53.126Z,2.33
2022-12-18T07:37:19.443Z,2.28
2022-12-18T07:39:45.749Z,2.70
2022-12-18T07:42:32.885Z,2.58
2022-12-18T07:45:01.199Z,2.28
2022-12-18T07:47:29.140Z,2.45
2022-12-18T07:49:56.347Z,2.30
2022-12-18T07:52:25.912Z,2.58
2022-12-18T07:54:52.752Z,2.78
2022-12-18T07:57:48.392Z,2.78
2022-12-18T08:00:06.043Z,2.63
2022-12-18T08:02:32.881Z,2.25
2022-12-18T08:04:59.440Z,2.78
2022-12-18T08:07:25.781Z,2.97
2022-12-18T08:09:52.227Z,2.70
2022-12-18T08:12:18.512Z,2.95
2022-12-18T08:14:44.828Z,2.47
2022-12-18T08:17:11.159Z,2.88
2022-12-18T08:19:37.555Z,2.67
2022-12-18T08:22:03.893Z,3.05
2022-12-18T08:24:30.261Z,3.13
2022-12-18T08:27:27.934Z,2.97
2022-12-18T08:29:44.574Z,3.00
2022-12-18T08:32:10.944Z,3.03
2022-12-18T08:34:37.419Z,3.20
2022-12-18T08:37:03.791Z,3.28
2022-12-18T08:39:30.157Z,3.15
2022-12-18T08:42:14.817Z,2.67
2022-12-18T08:44:42.066Z,3.13
2022-12-18T08:47:08.696Z,3.60
2022-12-18T08:49:36.053Z,2.97
2022-12-18T08:52:03.703Z,3.25
2022-12-18T08:54:30.216Z,3.75
2022-12-18T08:56:56.510Z,2.90
2022-12-18T08:59:24.015Z,3.10
2022-12-18T09:01:50.458Z,3.60
2022-12-18T09:04:17.132Z,3.42
2022-12-18T09:06:43.526Z,3.30
2022-12-18T09:09:10.622Z,3.75
2022-12-18T09:11:37.844Z,3.90
2022-12-18T09:14:04.446Z,3.80
2022-12-18T09:16:33.000Z,3.92
2022-12-18T09:19:00.599Z,3.60
2022-12-18T09:21:29.993Z,3.28
2022-12-18T09:23:57.237Z,3.53
2022-12-18T09:26:24.861Z,3.15
2022-12-18T09:28:51.865Z,3.67
2022-12-18T09:31:21.452Z,3.42
2022-12-18T09:33:47.907Z,3.60
2022-12-18T09:36:16.840Z,3.50
2022-12-18T09:38:43.535Z,3.58
2022-12-18T09:41:45.142Z,3.38
2022-12-18T09:44:15.261Z,2.90
2022-12-18T09:46:47.014Z,3.42
2022-12-18T09:49:17.057Z,2.97
2022-12-18T09:51:47.848Z,3.05
2022-12-18T09:54:21.546Z,3.60
2022-12-18T09:56:48.790Z,3.20
2022-12-18T09:59:21.958Z,3.00
2022-12-18T10:01:48.332Z,3.58
2022-12-18T10:04:14.858Z,3.60
2022-12-18T10:07:04.314Z,3.72
2022-12-18T10:09:47.587Z,3.97
2022-12-18T10:12:20.495Z,3.15
2022-12-18T10:17:21.610Z,2.90
2022-12-18T10:19:55.174Z,3.53
2022-12-18T10:22:30.441Z,4.05
2022-12-18T10:25:14.240Z,3.83
2022-12-18T10:27:41.165Z,3.35
2022-12-18T10:30:15.976Z,3.90
2022-12-18T10:32:42.857Z,3.80
2022-12-18T10:35:19.913Z,3.65
2022-12-18T10:38:04.985Z,3.72
2022-12-18T10:40:32.009Z,3.80
2022-12-18T10:43:07.190Z,3.92
2022-12-18T10:45:33.505Z,3.90
2022-12-18T10:47:59.905Z,4.20
2022-12-18T10:51:09.138Z,4.60
2022-12-18T10:53:26.943Z,4.25
2022-12-18T10:55:56.346Z,4.40
2022-12-18T10:58:27.610Z,4.20
2022-12-18T11:01:08.118Z,4.20
2022-12-18T11:03:57.578Z,4.20
2022-12-18T11:06:27.105Z,3.88
2022-12-18T11:09:03.660Z,3.70
2022-12-18T11:11:33.965Z,4.57
2022-12-18T11:14:06.188Z,4.32
2022-12-18T11:16:57.894Z,4.20
2022-12-18T11:19:34.291Z,4.47
2022-12-18T11:22:04.879Z,4.43
2022-12-18T11:24:33.683Z,4.10
2022-12-18T11:27:03.259Z,4.78
2022-12-18T11:29:46.216Z,4.68
2022-12-18T11:32:16.030Z,4.72
2022-12-18T11:34:47.827Z,4.70
2022-12-18T11:37:20.062Z,4.75
2022-12-18T11:39:53.648Z,5.47
2022-12-18T11:42:28.497Z,4.65
2022-12-18T11:45:24.066Z,4.13
2022-12-18T11:47:56.440Z,4.90
2022-12-18T11:50:27.529Z,5.15
2022-12-18T11:52:58.213Z,4.93
2022-12-18T11:55:40.693Z,4.65
2022-12-18T11:58:22.484Z,5.22
2022-12-18T12:01:05.361Z,4.78
2022-12-18T12:03:49.527Z,5.18
2022-12-18T12:06:22.316Z,5.18
2022-12-18T12:09:09.589Z,5.38
2022-12-18T12:11:57.502Z,5.07
2022-12-18T12:14:53.461Z,5.80
2022-12-18T12:17:51.441Z,5.57
2022-12-18T12:20:26.538Z,6.18
2022-12-18T12:23:26.079Z,6.28
2022-12-18T12:26:03.330Z,5.88
2022-12-18T12:28:39.032Z,5.90
2022-12-18T12:31:33.583Z,5.93
2022-12-18T12:34:20.374Z,6.38
2022-12-18T12:36:58.860Z,6.63
2022-12-18T12:39:32.811Z,7.07
2022-12-18T12:42:18.038Z,7.80
2022-12-18T12:44:55.770Z,8.05
2022-12-18T12:47:28.599Z,8.13
2022-12-18T12:49:59.051Z,9.50
2022-12-18T12:52:40.759Z,8.82
2022-12-18T12:55:19.755Z,9.37
2022-12-18T12:58:18.396Z,8.63
2022-12-18T13:00:57.506Z,8.25
2022-12-18T13:03:44.350Z,7.38
2022-12-18T13:06:28.152Z,8.48
2022-12-18T13:08:54.579Z,9.20
2022-12-18T13:11:59.515Z,9.02
2022-12-18T13:14:33.504Z,9.30
2022-12-18T13:17:21.464Z,9.32
2022-12-18T13:20:09.171Z,9.88
2022-12-18T13:22:50.028Z,8.57
2022-12-18T13:25:38.605Z,8.95
2022-12-18T13:28:22.088Z,9.00
2022-12-18T13:30:58.968Z,8.75
2022-12-18T13:33:31.216Z,8.35
2022-12-18T13:36:09.940Z,8.20
2022-12-18T13:38:39.329Z,7.88
2022-12-18T13:41:29.093Z,7.55
2022-12-18T13:44:00.165Z,7.00
2022-12-18T13:46:42.813Z,7.22
2022-12-18T13:49:15.085Z,7.72
2022-12-18T13:51:48.909Z,7.53
2022-12-18T13:54:20.877Z,7.53
2022-12-18T13:56:49.262Z,7.28
2022-12-18T13:59:15.881Z,6.57
2022-12-18T14:01:45.110Z,7.10
2022-12-18T14:04:22.375Z,7.38
2022-12-18T14:06:52.334Z,7.60
2022-12-18T14:09:27.290Z,7.43
2022-12-18T14:12:15.635Z,7.53
2022-12-18T14:14:45.530Z,6.88
2022-12-18T14:17:13.663Z,7.40
2022-12-18T14:19:49.666Z,7.05
2022-12-18T14:22:19.729Z,6.82
2022-12-18T14:24:46.879Z,6.80
2022-12-18T14:27:25.353Z,6.40
2022-12-18T14:29:52.444Z,6.25
2022-12-18T14:32:20.816Z,6.70
2022-12-18T14:34:50.559Z,6.72
2022-12-18T14:37:22.681Z,7.07
2022-12-18T14:40:11.089Z,5.32
2022-12-18T14:42:38.341Z,6.30
2022-12-18T14:45:41.601Z,6.50
2022-12-18T14:48:31.527Z,5.78
2022-12-18T14:51:01.844Z,5.45
2022-12-18T14:53:40.812Z,5.30
2022-12-18T14:56:21.806Z,5.68
2022-12-18T14:59:22.328Z,6.03
2022-12-18T15:01:50.735Z,4.95
2022-12-18T15:04:36.053Z,5.45
2022-12-18T15:07:06.426Z,5.13
2022-12-18T15:09:33.061Z,5.90
2022-12-18T15:12:01.306Z,5.35
2022-12-18T15:14:30.798Z,5.07
2022-12-18T15:16:58.739Z,5.65
2022-12-18T15:19:36.230Z,5.43
2022-12-18T15:22:06.321Z,5.22
2022-12-18T15:24:33.722Z,5.35
2022-12-18T15:27:01.261Z,5.53
2022-12-18T15:29:30.443Z,5.22
2022-12-18T15:32:01.324Z,5.20
2022-12-18T15:34:27.944Z,5.30
2022-12-18T15:36:54.426Z,4.82
2022-12-18T15:39:20.972Z,4.25
2022-12-18T15:42:06.608Z,4.55
2022-12-18T15:44:35.973Z,4.70
2022-12-18T15:47:02.435Z,4.25
2022-12-18T15:49:28.931Z,4.30
2022-12-18T15:51:59.148Z,4.38
2022-12-18T15:54:44.217Z,4.10
2022-12-18T15:57:27.377Z,4.07
2022-12-18T16:02:23.940Z,3.80
2022-12-18T16:04:53.085Z,4.07
2022-12-18T16:07:25.476Z,3.45
2022-12-18T16:09:53.207Z,3.65
2022-12-18T16:12:23.493Z,3.47
2022-12-18T16:14:50.080Z,3.63
2022-12-18T16:17:16.868Z,3.92
2022-12-18T16:19:43.398Z,4.40
2022-12-18T16:22:20.354Z,3.88
2022-12-18T16:24:46.817Z,3.50
2022-12-18T16:27:13.546Z,4.25
2022-12-18T16:29:40.041Z,3.75
2022-12-18T16:32:06.497Z,3.95
2022-12-18T16:34:36.065Z,4.20
2022-12-18T16:37:06.335Z,3.90
2022-12-18T16:39:35.273Z,3.88
2022-12-18T16:42:07.862Z,3.92
2022-12-18T16:44:34.962Z,3.88
2022-12-18T16:47:03.138Z,4.28
2022-12-18T16:49:30.460Z,4.00
2022-12-18T16:51:57.215Z,3.85
2022-12-18T16:54:23.780Z,3.55
2022-12-18T16:56:51.824Z,4.40
2022-12-18T16:59:18.772Z,4.25
2022-12-18T17:01:45.706Z,4.45
2022-12-18T17:04:12.278Z,4.22
2022-12-18T17:06:44.038Z,4.30
2022-12-18T17:09:16.398Z,4.05
2022-12-18T17:11:43.879Z,4.30
2022-12-18T17:14:15.006Z,3.95
2022-12-18T17:16:41.525Z,4.68
2022-12-18T17:19:10.934Z,4.43
2022-12-18T17:21:41.986Z,4.80
2022-12-18T17:24:08.950Z,4.60
2022-12-18T17:26:35.423Z,4.47
2022-12-18T17:29:02.042Z,4.13
2022-12-18T17:31:30.090Z,4.35
2022-12-18T17:33:57.807Z,4.53
2022-12-18T17:36:28.528Z,5.20
2022-12-18T17:38:58.468Z,5.40
2022-12-18T17:41:26.178Z,5.03
2022-12-18T17:43:53.437Z,4.97
2022-12-18T17:46:20.794Z,5.25
2022-12-18T17:48:47.956Z,5.25
2022-12-18T17:51:15.809Z,5.40
2022-12-18T17:53:43.174Z,5.55
2022-12-18T17:56:14.777Z,6.03
2022-12-18T17:58:42.351Z,6.03
2022-12-18T18:01:09.544Z,6.53
2022-12-18T18:03:39.700Z,6.35
2022-12-18T18:06:07.006Z,6.13
2022-12-18T18:08:35.310Z,6.45
2022-12-18T18:11:30.578Z,6.95
2022-12-18T18:14:00.919Z,6.72
2022-12-18T18:16:34.090Z,6.05
2022-12-18T18:19:02.337Z,7.38
2022-12-18T18:21:29.064Z,6.72
2022-12-18T18:23:59.479Z,6.82
2022-12-18T18:26:29.207Z,6.95
2022-12-18T18:28:57.319Z,6.95
2022-12-18T18:31:23.905Z,6.90
2022-12-18T18:33:50.384Z,6.70
2022-12-18T18:36:16.888Z,7.28
2022-12-18T18:38:48.263Z,7.18
2022-12-18T18:41:15.976Z,6.55
2022-12-18T18:43:43.381Z,7.78
2022-12-18T18:46:13.009Z,7.30
2022-12-18T18:48:40.700Z,7.95
2022-12-18T18:51:16.539Z,7.50
2022-12-18T18:53:49.944Z,7.55
2022-12-18T18:56:56.190Z,9.07
2022-12-18T18:59:06.193Z,7.45
2022-12-18T19:01:33.132Z,8.10
2022-12-18T19:04:02.405Z,8.57
2022-12-18T19:06:29.088Z,8.00
2022-12-18T19:08:58.114Z,8.13
2022-12-18T19:11:44.581Z,8.80
2022-12-18T19:14:13.201Z,8.48
2022-12-18T19:16:40.378Z,8.90
2022-12-18T19:19:07.569Z,8.70
2022-12-18T19:21:34.990Z,8.90
2022-12-18T19:24:24.535Z,9.38
2022-12-18T19:26:52.050Z,9.00
2022-12-18T19:29:19.337Z,9.27
2022-12-18T19:31:45.811Z,9.55
2022-12-18T19:34:12.851Z,9.30
2022-12-18T19:36:40.682Z,9.23
2022-12-18T19:39:11.042Z,9.13
2022-12-18T19:41:37.438Z,9.55
2022-12-18T19:44:07.664Z,10.20
2022-12-18T19:46:34.715Z,10.82
2022-12-18T19:49:02.480Z,10.63
2022-12-18T19:51:29.844Z,11.07
2022-12-18T19:53:59.095Z,11.30
2022-12-18T19:56:29.744Z,11.48
2022-12-18T19:58:56.291Z,10.50
2022-12-18T20:01:24.187Z,11.40
2022-12-18T20:03:52.455Z,12.57
2022-12-18T20:06:35.053Z,11.95
2022-12-18T20:09:05.201Z,12.05
2022-12-18T20:11:33.100Z,11.73
2022-12-18T20:14:01.169Z,13.18
2022-12-18T20:16:28.045Z,13.00
2022-12-18T20:18:54.606Z,13.40
2022-12-18T20:21:21.234Z,14.30
2022-12-18T20:23:47.573Z,13.68
2022-12-18T20:26:14.003Z,14.50
2022-12-18T20:28:40.804Z,12.80
2022-12-18T20:31:08.338Z,14.25
2022-12-18T20:33:37.595Z,13.85
2022-12-18T20:36:11.085Z,14.13
2022-12-18T20:38:39.032Z,13.93
2022-12-18T20:41:11.728Z,14.20
2022-12-18T20:43:39.116Z,14.48
2022-12-18T20:46:09.015Z,13.20
2022-12-18T20:48:36.012Z,13.15
2022-12-18T20:51:06.061Z,14.32
2022-12-18T20:53:33.474Z,14.45
2022-12-18T20:55:59.941Z,13.40
2022-12-18T20:58:26.266Z,14.65
2022-12-18T21:01:06.954Z,14.18
2022-12-18T21:03:36.473Z,14.40
2022-12-18T21:06:03.411Z,14.88
2022-12-18T21:08:30.069Z,14.45
2022-12-18T21:10:56.650Z,15.00
2022-12-18T21:13:23.605Z,15.30
2022-12-18T21:15:53.301Z,14.70
2022-12-18T21:18:20.206Z,15.60
2022-12-18T21:20:46.506Z,16.25
2022-12-18T21:23:16.662Z,18.00
2022-12-18T21:25:44.280Z,17.05
2022-12-18T21:28:12.007Z,15.88
2022-12-18T21:30:38.663Z,15.57
2022-12-18T21:33:05.055Z,15.38
2022-12-18T21:35:32.033Z,16.55
2022-12-18T21:37:58.550Z,15.95
2022-12-18T21:40:25.135Z,17.17
2022-12-18T21:43:10.187Z,16.90
2022-12-18T21:45:39.598Z,15.60
2022-12-18T21:48:05.979Z,17.63
2022-12-18T21:50:32.311Z,16.02
2022-12-18T21:52:58.659Z,17.38
2022-12-18T21:55:25.008Z,17.05
2022-12-18T21:57:53.668Z,17.45
2022-12-18T22:00:20.103Z,17.70
2022-12-18T22:02:47.408Z,16.88
2022-12-18T22:05:13.959Z,17.05
2022-12-18T22:07:40.357Z,16.70
2022-12-18T22:10:07.319Z,17.45
2022-12-18T22:12:43.732Z,18.02
2022-12-18T22:15:16.288Z,18.48
2022-12-18T22:17:49.686Z,16.55
2022-12-18T22:20:16.166Z,16.00
2022-12-18T22:22:42.501Z,16.35
2022-12-18T22:25:10.570Z,18.38
2022-12-18T22:27:37.624Z,17.27
2022-12-18T22:30:04.737Z,17.63
2022-12-18T22:32:35.713Z,17.08
2022-12-18T22:35:08.376Z,16.50
2022-12-18T22:37:37.079Z,17.05
2022-12-18T22:40:05.090Z,16.73
2022-12-18T22:42:32.498Z,15.50
2022-12-18T22:45:00.084Z,15.60
2022-12-18T22:47:29.774Z,16.33
2022-12-18T22:49:57.318Z,15.95
2022-12-18T22:52:24.785Z,16.25
2022-12-18T22:54:51.314Z,16.20
2022-12-18T22:57:19.863Z,15.13
2022-12-18T22:59:46.178Z,15.70
2022-12-18T23:02:12.596Z,16.45
2022-12-18T23:04:39.667Z,15.85
2022-12-18T23:07:06.056Z,16.35
2022-12-18T23:09:33.089Z,17.27
2022-12-18T23:12:00.155Z,17.27
2022-12-18T23:14:27.487Z,15.70
2022-12-18T23:16:53.801Z,16.45
2022-12-18T23:19:20.976Z,15.55
2022-12-18T23:21:49.812Z,14.07
2022-12-18T23:24:16.127Z,15.55
2022-12-18T23:26:42.466Z,16.13
2022-12-18T23:29:08.760Z,15.68
2022-12-18T23:31:37.033Z,16.15
2022-12-18T23:34:04.713Z,15.82
2022-12-18T23:36:36.909Z,14.95
2022-12-18T23:39:22.334Z,15.43
2022-12-18T23:41:55.776Z,16.50
2022-12-18T23:44:22.381Z,15.38
2022-12-18T23:46:48.800Z,16.88
2022-12-18T23:49:17.242Z,15.95
2022-12-18T23:51:43.562Z,15.38
2022-12-18T23:54:10.303Z,15.52
2022-12-18T23:56:36.626Z,15.93
2022-12-18T23:59:03.149Z,15.80
